sensor_id;sensor_type;location;lat;lon;timestamp;P1;durP1;ratioP1;P2;durP2;ratioP2
32451;SDS011;45528;52.102;5.242;2023-09-18T00:00:08;4.8;;;2.5;;
32451;SDS011;45528;52.102;5.242;2023-09-18T00:03:22;3.4;;;2.5;;
32451;SDS011;45528;52.102;5.242;2023-09-18T00:04:58;4.7;;;2.0;;
32451;SDS011;45528;52.102;5.242;2023-09-18T00:06:34;4.41;;;2.21;;
32451;SDS011;45528;52.102;5.242;2023-09-18T00:09:46;4.3;;;2.4;;
32451;SDS011;45528;52.102;5.242;2023-09-18T00:11:22;4.91;;;2.31;;
32451;SDS011;45528;52.102;5.242;2023-09-18T00:12:59;3.9;;;2.1;;
32451;SDS011;45528;52.102;5.242;2023-09-18T00:16:13;4.61;;;2.1;;
32451;SDS011;45528;52.102;5.242;2023-09-18T00:17:49;4.91;;;2.7;;
32451;SDS011;45528;52.102;5.242;2023-09-18T00:19:25;5.0;;;2.5;;
32451;SDS011;45528;52.102;5.242;2023-09-18T00:21:01;5.0;;;2.5;;
32451;SDS011;45528;52.102;5.242;2023-09-18T00:24:14;3.0;;;2.0;;
32451;SDS011;45528;52.102;5.242;2023-09-18T00:25:50;4.7;;;2.6;;
32451;SDS011;45528;52.102;5.242;2023-09-18T00:27:27;4.61;;;2.5;;
32451;SDS011;45528;52.102;5.242;2023-09-18T00:30:42;4.3;;;2.1;;
32451;SDS011;45528;52.102;5.242;2023-09-18T00:32:23;3.8;;;2.31;;
32451;SDS011;45528;52.102;5.242;2023-09-18T00:33:59;3.9;;;2.7;;
32451;SDS011;45528;52.102;5.242;2023-09-18T00:35:35;4.8;;;2.4;;
32451;SDS011;45528;52.102;5.242;2023-09-18T00:38:47;6.2;;;3.2;;
32451;SDS011;45528;52.102;5.242;2023-09-18T00:40:23;4.5;;;3.1;;
32451;SDS011;45528;52.102;5.242;2023-09-18T00:42:00;4.5;;;3.3;;
32451;SDS011;45528;52.102;5.242;2023-09-18T00:45:12;4.91;;;2.5;;
32451;SDS011;45528;52.102;5.242;2023-09-18T00:46:48;6.2;;;2.9;;
32451;SDS011;45528;52.102;5.242;2023-09-18T00:48:25;4.7;;;2.5;;
32451;SDS011;45528;52.102;5.242;2023-09-18T00:51:38;7.5;;;3.4;;
32451;SDS011;45528;52.102;5.242;2023-09-18T00:53:17;5.11;;;2.7;;
32451;SDS011;45528;52.102;5.242;2023-09-18T00:54:57;5.2;;;2.7;;
32451;SDS011;45528;52.102;5.242;2023-09-18T00:56:35;9.0;;;3.3;;
32451;SDS011;45528;52.102;5.242;2023-09-18T00:59:49;5.2;;;3.0;;
32451;SDS011;45528;52.102;5.242;2023-09-18T01:01:26;4.7;;;2.5;;
32451;SDS011;45528;52.102;5.242;2023-09-18T01:03:03;5.4;;;3.0;;
32451;SDS011;45528;52.102;5.242;2023-09-18T01:06:17;6.6;;;2.8;;
32451;SDS011;45528;52.102;5.242;2023-09-18T01:07:53;6.0;;;3.0;;
32451;SDS011;45528;52.102;5.242;2023-09-18T01:09:30;4.0;;;2.6;;
32451;SDS011;45528;52.102;5.242;2023-09-18T01:11:09;5.3;;;2.9;;
32451;SDS011;45528;52.102;5.242;2023-09-18T01:14:44;5.8;;;3.4;;
32451;SDS011;45528;52.102;5.242;2023-09-18T01:16:31;4.7;;;2.7;;
32451;SDS011;45528;52.102;5.242;2023-09-18T01:18:13;5.11;;;2.8;;
32451;SDS011;45528;52.102;5.242;2023-09-18T01:19:50;7.0;;;3.7;;
32451;SDS011;45528;52.102;5.242;2023-09-18T01:23:02;6.0;;;3.2;;
32451;SDS011;45528;52.102;5.242;2023-09-18T01:24:39;7.3;;;3.3;;
32451;SDS011;45528;52.102;5.242;2023-09-18T01:26:16;7.9;;;3.3;;
32451;SDS011;45528;52.102;5.242;2023-09-18T01:27:52;6.6;;;3.2;;
32451;SDS011;45528;52.102;5.242;2023-09-18T01:31:04;7.6;;;3.7;;
32451;SDS011;45528;52.102;5.242;2023-09-18T01:32:41;5.0;;;2.6;;
32451;SDS011;45528;52.102;5.242;2023-09-18T01:34:19;8.6;;;4.3;;
32451;SDS011;45528;52.102;5.242;2023-09-18T01:37:41;7.8;;;4.41;;
32451;SDS011;45528;52.102;5.242;2023-09-18T01:39:19;7.1;;;3.8;;
32451;SDS011;45528;52.102;5.242;2023-09-18T01:40:57;5.5;;;3.1;;
32451;SDS011;45528;52.102;5.242;2023-09-18T01:42:33;7.1;;;3.3;;
32451;SDS011;45528;52.102;5.242;2023-09-18T01:45:47;6.2;;;3.4;;
32451;SDS011;45528;52.102;5.242;2023-09-18T01:47:23;7.3;;;3.3;;
32451;SDS011;45528;52.102;5.242;2023-09-18T01:48:59;6.2;;;3.4;;
32451;SDS011;45528;52.102;5.242;2023-09-18T01:52:12;6.9;;;2.8;;
32451;SDS011;45528;52.102;5.242;2023-09-18T01:53:50;7.4;;;3.5;;
32451;SDS011;45528;52.102;5.242;2023-09-18T01:55:29;7.0;;;3.3;;
32451;SDS011;45528;52.102;5.242;2023-09-18T01:58:42;5.2;;;3.2;;
32451;SDS011;45528;52.102;5.242;2023-09-18T02:00:18;5.11;;;2.9;;
32451;SDS011;45528;52.102;5.242;2023-09-18T02:01:54;5.3;;;2.9;;
32451;SDS011;45528;52.102;5.242;2023-09-18T02:03:30;8.1;;;3.5;;
32451;SDS011;45528;52.102;5.242;2023-09-18T02:06:43;7.1;;;3.2;;
32451;SDS011;45528;52.102;5.242;2023-09-18T02:08:20;6.5;;;3.4;;
32451;SDS011;45528;52.102;5.242;2023-09-18T02:09:56;6.1;;;3.3;;
32451;SDS011;45528;52.102;5.242;2023-09-18T02:13:08;7.6;;;3.1;;
32451;SDS011;45528;52.102;5.242;2023-09-18T02:14:44;7.4;;;3.2;;
32451;SDS011;45528;52.102;5.242;2023-09-18T02:16:20;6.9;;;2.9;;
32451;SDS011;45528;52.102;5.242;2023-09-18T02:19:33;10.0;;;3.6;;
32451;SDS011;45528;52.102;5.242;2023-09-18T02:21:09;4.3;;;2.6;;
32451;SDS011;45528;52.102;5.242;2023-09-18T02:22:46;6.3;;;3.3;;
32451;SDS011;45528;52.102;5.242;2023-09-18T02:24:22;6.1;;;3.2;;
32451;SDS011;45528;52.102;5.242;2023-09-18T02:27:34;5.6;;;3.2;;
32451;SDS011;45528;52.102;5.242;2023-09-18T02:29:10;5.2;;;3.1;;
32451;SDS011;45528;52.102;5.242;2023-09-18T02:30:46;5.8;;;3.1;;
32451;SDS011;45528;52.102;5.242;2023-09-18T02:33:59;4.91;;;2.5;;
32451;SDS011;45528;52.102;5.242;2023-09-18T02:35:35;4.8;;;2.6;;
32451;SDS011;45528;52.102;5.242;2023-09-18T02:37:11;6.6;;;3.1;;
32451;SDS011;45528;52.102;5.242;2023-09-18T02:40:23;4.8;;;2.5;;
32451;SDS011;45528;52.102;5.242;2023-09-18T02:41:59;6.0;;;3.0;;
32451;SDS011;45528;52.102;5.242;2023-09-18T02:43:35;6.3;;;3.1;;
32451;SDS011;45528;52.102;5.242;2023-09-18T02:46:47;4.8;;;2.4;;
32451;SDS011;45528;52.102;5.242;2023-09-18T02:48:24;4.3;;;2.7;;
32451;SDS011;45528;52.102;5.242;2023-09-18T02:49:59;4.91;;;2.31;;
32451;SDS011;45528;52.102;5.242;2023-09-18T02:51:35;6.6;;;3.2;;
32451;SDS011;45528;52.102;5.242;2023-09-18T02:54:53;7.1;;;2.6;;
32451;SDS011;45528;52.102;5.242;2023-09-18T02:56:29;4.7;;;2.31;;
32451;SDS011;45528;52.102;5.242;2023-09-18T02:58:05;5.9;;;3.2;;
32451;SDS011;45528;52.102;5.242;2023-09-18T03:01:18;5.3;;;2.4;;
32451;SDS011;45528;52.102;5.242;2023-09-18T03:02:54;3.4;;;1.8;;
32451;SDS011;45528;52.102;5.242;2023-09-18T03:04:31;8.1;;;2.8;;
32451;SDS011;45528;52.102;5.242;2023-09-18T03:07:43;3.9;;;2.31;;
32451;SDS011;45528;52.102;5.242;2023-09-18T03:09:19;7.7;;;2.9;;
32451;SDS011;45528;52.102;5.242;2023-09-18T03:10:55;4.91;;;2.5;;
32451;SDS011;45528;52.102;5.242;2023-09-18T03:12:31;4.7;;;2.7;;
32451;SDS011;45528;52.102;5.242;2023-09-18T03:15:44;4.7;;;2.8;;
32451;SDS011;45528;52.102;5.242;2023-09-18T03:17:21;4.7;;;2.4;;
32451;SDS011;45528;52.102;5.242;2023-09-18T03:18:57;6.0;;;2.21;;
32451;SDS011;45528;52.102;5.242;2023-09-18T03:22:09;5.3;;;2.9;;
32451;SDS011;45528;52.102;5.242;2023-09-18T03:23:45;5.0;;;2.7;;
32451;SDS011;45528;52.102;5.242;2023-09-18T03:25:21;4.1;;;2.5;;
32451;SDS011;45528;52.102;5.242;2023-09-18T03:28:34;4.5;;;2.7;;
32451;SDS011;45528;52.102;5.242;2023-09-18T03:30:10;5.4;;;2.5;;
32451;SDS011;45528;52.102;5.242;2023-09-18T03:31:47;4.41;;;2.21;;
32451;SDS011;45528;52.102;5.242;2023-09-18T03:33:23;5.11;;;2.21;;
32451;SDS011;45528;52.102;5.242;2023-09-18T03:36:35;4.91;;;2.6;;
32451;SDS011;45528;52.102;5.242;2023-09-18T03:38:11;6.0;;;2.5;;
32451;SDS011;45528;52.102;5.242;2023-09-18T03:39:47;6.1;;;2.7;;
32451;SDS011;45528;52.102;5.242;2023-09-18T03:42:59;5.8;;;2.4;;
32451;SDS011;45528;52.102;5.242;2023-09-18T03:44:36;5.2;;;2.1;;
32451;SDS011;45528;52.102;5.242;2023-09-18T03:46:13;6.3;;;2.7;;
32451;SDS011;45528;52.102;5.242;2023-09-18T03:49:27;6.2;;;3.0;;
32451;SDS011;45528;52.102;5.242;2023-09-18T03:51:03;3.3;;;2.6;;
32451;SDS011;45528;52.102;5.242;2023-09-18T03:52:40;3.9;;;2.5;;
32451;SDS011;45528;52.102;5.242;2023-09-18T03:55:52;4.7;;;2.8;;
32451;SDS011;45528;52.102;5.242;2023-09-18T03:57:28;6.3;;;2.9;;
32451;SDS011;45528;52.102;5.242;2023-09-18T03:59:05;6.0;;;2.8;;
32451;SDS011;45528;52.102;5.242;2023-09-18T04:00:41;6.6;;;3.3;;
32451;SDS011;45528;52.102;5.242;2023-09-18T04:03:53;8.0;;;2.9;;
32451;SDS011;45528;52.102;5.242;2023-09-18T04:05:28;7.3;;;3.3;;
32451;SDS011;45528;52.102;5.242;2023-09-18T04:07:05;6.6;;;3.2;;
32451;SDS011;45528;52.102;5.242;2023-09-18T04:10:18;5.5;;;3.3;;
32451;SDS011;45528;52.102;5.242;2023-09-18T04:11:54;3.3;;;2.4;;
32451;SDS011;45528;52.102;5.242;2023-09-18T04:13:30;4.41;;;2.4;;
32451;SDS011;45528;52.102;5.242;2023-09-18T04:16:42;4.8;;;2.31;;
32451;SDS011;45528;52.102;5.242;2023-09-18T04:18:18;5.2;;;3.0;;
32451;SDS011;45528;52.102;5.242;2023-09-18T04:19:54;4.8;;;2.4;;
32451;SDS011;45528;52.102;5.242;2023-09-18T04:21:30;5.3;;;2.5;;
32451;SDS011;45528;52.102;5.242;2023-09-18T04:25:01;4.1;;;2.31;;
32451;SDS011;45528;52.102;5.242;2023-09-18T04:26:37;4.3;;;2.21;;
32451;SDS011;45528;52.102;5.242;2023-09-18T04:28:13;4.91;;;2.4;;
32451;SDS011;45528;52.102;5.242;2023-09-18T04:31:25;3.8;;;2.0;;
32451;SDS011;45528;52.102;5.242;2023-09-18T04:33:01;6.8;;;2.31;;
32451;SDS011;45528;52.102;5.242;2023-09-18T04:34:37;3.8;;;2.31;;
32451;SDS011;45528;52.102;5.242;2023-09-18T04:36:13;3.4;;;2.1;;
32451;SDS011;45528;52.102;5.242;2023-09-18T04:39:26;4.2;;;2.1;;
32451;SDS011;45528;52.102;5.242;2023-09-18T04:41:02;4.0;;;2.0;;
32451;SDS011;45528;52.102;5.242;2023-09-18T04:42:38;4.1;;;2.21;;
32451;SDS011;45528;52.102;5.242;2023-09-18T04:45:51;3.8;;;1.5;;
32451;SDS011;45528;52.102;5.242;2023-09-18T04:47:27;1.5;;;0.9;;
32451;SDS011;45528;52.102;5.242;2023-09-18T04:49:03;1.7;;;0.8;;
32451;SDS011;45528;52.102;5.242;2023-09-18T04:52:15;3.2;;;1.3;;
32451;SDS011;45528;52.102;5.242;2023-09-18T04:53:52;3.2;;;1.5;;
32451;SDS011;45528;52.102;5.242;2023-09-18T04:55:28;4.0;;;1.9;;
32451;SDS011;45528;52.102;5.242;2023-09-18T04:57:04;3.7;;;1.6;;
32451;SDS011;45528;52.102;5.242;2023-09-18T05:00:16;1.8;;;0.7;;
32451;SDS011;45528;52.102;5.242;2023-09-18T05:01:52;1.6;;;0.8;;
32451;SDS011;45528;52.102;5.242;2023-09-18T05:03:28;2.4;;;0.8;;
32451;SDS011;45528;52.102;5.242;2023-09-18T05:06:41;2.4;;;0.9;;
32451;SDS011;45528;52.102;5.242;2023-09-18T05:08:17;2.6;;;0.7;;
32451;SDS011;45528;52.102;5.242;2023-09-18T05:09:53;1.3;;;0.6;;
32451;SDS011;45528;52.102;5.242;2023-09-18T05:13:06;2.21;;;0.7;;
32451;SDS011;45528;52.102;5.242;2023-09-18T05:14:43;1.0;;;0.7;;
32451;SDS011;45528;52.102;5.242;2023-09-18T05:16:19;1.2;;;1.0;;
32451;SDS011;45528;52.102;5.242;2023-09-18T05:19:32;2.7;;;1.0;;
32451;SDS011;45528;52.102;5.242;2023-09-18T05:21:08;5.6;;;1.2;;
32451;SDS011;45528;52.102;5.242;2023-09-18T05:22:45;3.9;;;0.9;;
32451;SDS011;45528;52.102;5.242;2023-09-18T05:24:22;3.6;;;1.2;;
32451;SDS011;45528;52.102;5.242;2023-09-18T05:27:33;1.4;;;1.11;;
32451;SDS011;45528;52.102;5.242;2023-09-18T05:29:09;1.3;;;1.0;;
32451;SDS011;45528;52.102;5.242;2023-09-18T05:30:45;4.7;;;1.11;;
32451;SDS011;45528;52.102;5.242;2023-09-18T05:33:58;2.5;;;1.11;;
32451;SDS011;45528;52.102;5.242;2023-09-18T05:35:35;2.31;;;1.4;;
32451;SDS011;45528;52.102;5.242;2023-09-18T05:37:12;2.1;;;1.0;;
32451;SDS011;45528;52.102;5.242;2023-09-18T05:40:25;4.61;;;1.3;;
32451;SDS011;45528;52.102;5.242;2023-09-18T05:42:02;1.5;;;1.0;;
32451;SDS011;45528;52.102;5.242;2023-09-18T05:43:39;3.8;;;1.6;;
32451;SDS011;45528;52.102;5.242;2023-09-18T05:45:15;2.8;;;1.11;;
32451;SDS011;45528;52.102;5.242;2023-09-18T05:48:27;1.5;;;1.11;;
32451;SDS011;45528;52.102;5.242;2023-09-18T05:50:03;2.6;;;1.4;;
32451;SDS011;45528;52.102;5.242;2023-09-18T05:51:40;3.6;;;1.5;;
32451;SDS011;45528;52.102;5.242;2023-09-18T05:54:51;2.4;;;1.4;;
32451;SDS011;45528;52.102;5.242;2023-09-18T05:56:28;5.6;;;1.7;;
32451;SDS011;45528;52.102;5.242;2023-09-18T05:58:04;4.61;;;1.6;;
32451;SDS011;45528;52.102;5.242;2023-09-18T06:01:16;1.9;;;1.0;;
32451;SDS011;45528;52.102;5.242;2023-09-18T06:02:52;1.9;;;1.4;;
32451;SDS011;45528;52.102;5.242;2023-09-18T06:04:28;2.6;;;1.5;;
32451;SDS011;45528;52.102;5.242;2023-09-18T06:07:41;5.4;;;1.8;;
32451;SDS011;45528;52.102;5.242;2023-09-18T06:09:17;1.9;;;1.3;;
32451;SDS011;45528;52.102;5.242;2023-09-18T06:10:53;2.9;;;1.5;;
32451;SDS011;45528;52.102;5.242;2023-09-18T06:12:30;2.7;;;1.6;;
32451;SDS011;45528;52.102;5.242;2023-09-18T06:15:42;2.6;;;1.5;;
32451;SDS011;45528;52.102;5.242;2023-09-18T06:17:18;3.8;;;1.5;;
32451;SDS011;45528;52.102;5.242;2023-09-18T06:18:54;6.4;;;1.3;;
32451;SDS011;45528;52.102;5.242;2023-09-18T06:22:06;1.5;;;1.11;;
32451;SDS011;45528;52.102;5.242;2023-09-18T06:23:42;1.5;;;1.11;;
32451;SDS011;45528;52.102;5.242;2023-09-18T06:25:18;2.1;;;1.11;;
32451;SDS011;45528;52.102;5.242;2023-09-18T06:28:30;2.0;;;1.3;;
32451;SDS011;45528;52.102;5.242;2023-09-18T06:30:07;2.0;;;1.2;;
32451;SDS011;45528;52.102;5.242;2023-09-18T06:31:44;1.5;;;1.2;;
32451;SDS011;45528;52.102;5.242;2023-09-18T06:33:21;3.2;;;1.7;;
32451;SDS011;45528;52.102;5.242;2023-09-18T06:36:33;1.4;;;1.2;;
32451;SDS011;45528;52.102;5.242;2023-09-18T06:38:09;2.0;;;1.3;;
32451;SDS011;45528;52.102;5.242;2023-09-18T06:39:45;3.8;;;1.11;;
32451;SDS011;45528;52.102;5.242;2023-09-18T06:42:58;4.61;;;1.6;;
32451;SDS011;45528;52.102;5.242;2023-09-18T06:44:34;2.21;;;1.11;;
32451;SDS011;45528;52.102;5.242;2023-09-18T06:46:11;5.7;;;1.3;;
32451;SDS011;45528;52.102;5.242;2023-09-18T06:49:23;2.0;;;1.5;;
32451;SDS011;45528;52.102;5.242;2023-09-18T06:50:59;1.4;;;0.8;;
32451;SDS011;45528;52.102;5.242;2023-09-18T06:52:35;2.1;;;1.0;;
32451;SDS011;45528;52.102;5.242;2023-09-18T06:55:47;1.2;;;0.8;;
32451;SDS011;45528;52.102;5.242;2023-09-18T06:57:23;2.1;;;0.8;;
32451;SDS011;45528;52.102;5.242;2023-09-18T06:58:59;1.4;;;0.9;;
32451;SDS011;45528;52.102;5.242;2023-09-18T07:00:35;3.4;;;1.2;;
32451;SDS011;45528;52.102;5.242;2023-09-18T07:03:48;1.9;;;1.11;;
32451;SDS011;45528;52.102;5.242;2023-09-18T07:05:24;1.6;;;0.8;;
32451;SDS011;45528;52.102;5.242;2023-09-18T07:07:00;1.5;;;0.8;;
32451;SDS011;45528;52.102;5.242;2023-09-18T07:10:12;1.5;;;1.0;;
32451;SDS011;45528;52.102;5.242;2023-09-18T07:11:48;1.9;;;1.2;;
32451;SDS011;45528;52.102;5.242;2023-09-18T07:13:24;5.4;;;1.3;;
32451;SDS011;45528;52.102;5.242;2023-09-18T07:16:37;2.31;;;0.8;;
32451;SDS011;45528;52.102;5.242;2023-09-18T07:18:14;1.0;;;0.7;;
32451;SDS011;45528;52.102;5.242;2023-09-18T07:19:50;4.41;;;0.9;;
32451;SDS011;45528;52.102;5.242;2023-09-18T07:21:26;2.6;;;1.7;;
32451;SDS011;45528;52.102;5.242;2023-09-18T07:24:38;2.1;;;1.2;;
32451;SDS011;45528;52.102;5.242;2023-09-18T07:26:14;1.9;;;1.0;;
32451;SDS011;45528;52.102;5.242;2023-09-18T07:27:50;5.2;;;1.2;;
32451;SDS011;45528;52.102;5.242;2023-09-18T07:31:04;9.4;;;1.9;;
32451;SDS011;45528;52.102;5.242;2023-09-18T07:32:40;1.6;;;1.0;;
32451;SDS011;45528;52.102;5.242;2023-09-18T07:34:17;1.6;;;1.0;;
32451;SDS011;45528;52.102;5.242;2023-09-18T07:37:29;1.9;;;1.0;;
32451;SDS011;45528;52.102;5.242;2023-09-18T07:39:05;4.7;;;0.9;;
32451;SDS011;45528;52.102;5.242;2023-09-18T07:40:41;1.9;;;0.8;;
32451;SDS011;45528;52.102;5.242;2023-09-18T07:43:53;5.8;;;1.3;;
32451;SDS011;45528;52.102;5.242;2023-09-18T07:45:29;2.7;;;1.6;;
32451;SDS011;45528;52.102;5.242;2023-09-18T07:47:05;2.8;;;1.3;;
32451;SDS011;45528;52.102;5.242;2023-09-18T07:48:41;2.9;;;1.3;;
32451;SDS011;45528;52.102;5.242;2023-09-18T07:51:54;1.6;;;0.8;;
32451;SDS011;45528;52.102;5.242;2023-09-18T07:53:30;1.11;;;1.0;;
32451;SDS011;45528;52.102;5.242;2023-09-18T07:55:07;1.7;;;1.0;;
32451;SDS011;45528;52.102;5.242;2023-09-18T07:58:19;2.8;;;1.6;;
32451;SDS011;45528;52.102;5.242;2023-09-18T07:59:55;2.0;;;1.3;;
32451;SDS011;45528;52.102;5.242;2023-09-18T08:01:31;1.9;;;0.9;;
32451;SDS011;45528;52.102;5.242;2023-09-18T08:04:44;0.9;;;0.8;;
32451;SDS011;45528;52.102;5.242;2023-09-18T08:06:20;1.4;;;1.0;;
32451;SDS011;45528;52.102;5.242;2023-09-18T08:07:56;1.4;;;1.0;;
32451;SDS011;45528;52.102;5.242;2023-09-18T08:11:08;1.3;;;0.7;;
32451;SDS011;45528;52.102;5.242;2023-09-18T08:12:44;1.5;;;1.11;;
32451;SDS011;45528;52.102;5.242;2023-09-18T08:14:20;3.9;;;1.4;;
32451;SDS011;45528;52.102;5.242;2023-09-18T08:15:56;4.2;;;1.5;;
32451;SDS011;45528;52.102;5.242;2023-09-18T08:19:08;1.8;;;0.9;;
32451;SDS011;45528;52.102;5.242;2023-09-18T08:20:45;2.9;;;1.0;;
32451;SDS011;45528;52.102;5.242;2023-09-18T08:22:21;1.7;;;0.9;;
32451;SDS011;45528;52.102;5.242;2023-09-18T08:25:33;1.8;;;1.11;;
32451;SDS011;45528;52.102;5.242;2023-09-18T08:27:09;2.1;;;1.0;;
32451;SDS011;45528;52.102;5.242;2023-09-18T08:28:45;1.7;;;0.9;;
32451;SDS011;45528;52.102;5.242;2023-09-18T08:31:57;3.3;;;1.2;;
32451;SDS011;45528;52.102;5.242;2023-09-18T08:33:33;1.2;;;1.0;;
32451;SDS011;45528;52.102;5.242;2023-09-18T08:35:09;2.7;;;1.2;;
32451;SDS011;45528;52.102;5.242;2023-09-18T08:36:46;3.9;;;1.6;;
32451;SDS011;45528;52.102;5.242;2023-09-18T08:39:58;2.7;;;1.2;;
32451;SDS011;45528;52.102;5.242;2023-09-18T08:41:35;2.7;;;1.4;;
32451;SDS011;45528;52.102;5.242;2023-09-18T08:43:17;1.0;;;0.8;;
32451;SDS011;45528;52.102;5.242;2023-09-18T08:46:34;2.8;;;1.4;;
32451;SDS011;45528;52.102;5.242;2023-09-18T08:48:11;5.2;;;1.4;;
32451;SDS011;45528;52.102;5.242;2023-09-18T08:49:48;2.0;;;1.0;;
32451;SDS011;45528;52.102;5.242;2023-09-18T08:51:26;1.5;;;1.0;;
32451;SDS011;45528;52.102;5.242;2023-09-18T08:54:39;2.8;;;1.2;;
32451;SDS011;45528;52.102;5.242;2023-09-18T08:56:15;1.7;;;0.8;;
32451;SDS011;45528;52.102;5.242;2023-09-18T08:57:53;2.1;;;1.2;;
32451;SDS011;45528;52.102;5.242;2023-09-18T09:01:11;2.5;;;1.0;;
32451;SDS011;45528;52.102;5.242;2023-09-18T09:02:47;1.9;;;1.2;;
32451;SDS011;45528;52.102;5.242;2023-09-18T09:04:23;1.7;;;1.11;;
32451;SDS011;45528;52.102;5.242;2023-09-18T09:07:37;1.0;;;0.7;;
32451;SDS011;45528;52.102;5.242;2023-09-18T09:09:13;2.4;;;1.0;;
32451;SDS011;45528;52.102;5.242;2023-09-18T09:10:49;1.6;;;1.0;;
32451;SDS011;45528;52.102;5.242;2023-09-18T09:12:57;1.3;;;0.8;;
32451;SDS011;45528;52.102;5.242;2023-09-18T09:14:34;1.9;;;1.11;;
32451;SDS011;45528;52.102;5.242;2023-09-18T09:17:47;1.6;;;0.9;;
32451;SDS011;45528;52.102;5.242;2023-09-18T09:19:28;3.6;;;1.11;;
32451;SDS011;45528;52.102;5.242;2023-09-18T09:21:05;1.3;;;1.0;;
32451;SDS011;45528;52.102;5.242;2023-09-18T09:24:18;3.2;;;1.2;;
32451;SDS011;45528;52.102;5.242;2023-09-18T09:26:12;3.8;;;0.6;;
32451;SDS011;45528;52.102;5.242;2023-09-18T09:27:50;1.4;;;0.8;;
32451;SDS011;45528;52.102;5.242;2023-09-18T09:29:26;2.1;;;1.0;;
32451;SDS011;45528;52.102;5.242;2023-09-18T09:32:39;1.3;;;0.6;;
32451;SDS011;45528;52.102;5.242;2023-09-18T09:34:23;1.2;;;0.6;;
32451;SDS011;45528;52.102;5.242;2023-09-18T09:36:03;3.8;;;1.11;;
32451;SDS011;45528;52.102;5.242;2023-09-18T09:37:40;1.7;;;0.5;;
32451;SDS011;45528;52.102;5.242;2023-09-18T09:40:53;2.9;;;0.9;;
32451;SDS011;45528;52.102;5.242;2023-09-18T09:42:29;1.3;;;0.8;;
32451;SDS011;45528;52.102;5.242;2023-09-18T09:44:14;1.4;;;1.0;;
32451;SDS011;45528;52.102;5.242;2023-09-18T09:45:56;3.9;;;1.5;;
32451;SDS011;45528;52.102;5.242;2023-09-18T09:49:10;1.7;;;1.3;;
32451;SDS011;45528;52.102;5.242;2023-09-18T09:50:47;3.1;;;1.8;;
32451;SDS011;45528;52.102;5.242;2023-09-18T09:52:23;2.7;;;1.9;;
32451;SDS011;45528;52.102;5.242;2023-09-18T09:55:36;5.8;;;2.0;;
32451;SDS011;45528;52.102;5.242;2023-09-18T09:57:12;2.6;;;1.8;;
32451;SDS011;45528;52.102;5.242;2023-09-18T09:59:04;2.6;;;1.8;;
32451;SDS011;45528;52.102;5.242;2023-09-18T10:00:41;3.8;;;2.21;;
32451;SDS011;45528;52.102;5.242;2023-09-18T10:03:58;2.9;;;2.0;;
32451;SDS011;45528;52.102;5.242;2023-09-18T10:05:35;3.3;;;2.4;;
32451;SDS011;45528;52.102;5.242;2023-09-18T10:07:12;3.4;;;2.0;;
32451;SDS011;45528;52.102;5.242;2023-09-18T10:08:48;2.9;;;2.1;;
32451;SDS011;45528;52.102;5.242;2023-09-18T10:12:08;3.7;;;2.0;;
32451;SDS011;45528;52.102;5.242;2023-09-18T10:13:47;3.1;;;1.8;;
32451;SDS011;45528;52.102;5.242;2023-09-18T10:15:31;2.4;;;1.6;;
32451;SDS011;45528;52.102;5.242;2023-09-18T10:18:56;2.6;;;2.0;;
32451;SDS011;45528;52.102;5.242;2023-09-18T10:20:41;2.4;;;1.7;;
32451;SDS011;45528;52.102;5.242;2023-09-18T10:22:19;2.1;;;1.5;;
32451;SDS011;45528;52.102;5.242;2023-09-18T10:24:04;2.31;;;1.4;;
32451;SDS011;45528;52.102;5.242;2023-09-18T10:25:50;2.31;;;1.2;;
32451;SDS011;45528;52.102;5.242;2023-09-18T10:29:08;3.8;;;1.5;;
32451;SDS011;45528;52.102;5.242;2023-09-18T10:30:46;2.8;;;1.3;;
32451;SDS011;45528;52.102;5.242;2023-09-18T10:32:23;2.4;;;1.5;;
32451;SDS011;45528;52.102;5.242;2023-09-18T10:34:02;1.9;;;1.3;;
32451;SDS011;45528;52.102;5.242;2023-09-18T10:37:17;2.31;;;1.4;;
32451;SDS011;45528;52.102;5.242;2023-09-18T10:38:54;1.7;;;1.5;;
32451;SDS011;45528;52.102;5.242;2023-09-18T10:40:31;1.8;;;1.3;;
32451;SDS011;45528;52.102;5.242;2023-09-18T10:43:51;1.8;;;1.3;;
32451;SDS011;45528;52.102;5.242;2023-09-18T10:45:30;3.1;;;1.2;;
32451;SDS011;45528;52.102;5.242;2023-09-18T10:47:07;3.1;;;1.6;;
32451;SDS011;45528;52.102;5.242;2023-09-18T10:48:47;1.7;;;1.11;;
32451;SDS011;45528;52.102;5.242;2023-09-18T10:52:02;2.0;;;1.11;;
32451;SDS011;45528;52.102;5.242;2023-09-18T10:53:39;2.5;;;1.11;;
32451;SDS011;45528;52.102;5.242;2023-09-18T10:55:15;2.5;;;1.5;;
32451;SDS011;45528;52.102;5.242;2023-09-18T10:58:28;1.5;;;1.11;;
32451;SDS011;45528;52.102;5.242;2023-09-18T11:00:06;2.7;;;1.4;;
32451;SDS011;45528;52.102;5.242;2023-09-18T11:01:46;2.7;;;1.5;;
32451;SDS011;45528;52.102;5.242;2023-09-18T11:03:22;3.7;;;1.3;;
32451;SDS011;45528;52.102;5.242;2023-09-18T11:07:07;2.5;;;1.4;;
32451;SDS011;45528;52.102;5.242;2023-09-18T11:08:43;2.31;;;1.7;;
32451;SDS011;45528;52.102;5.242;2023-09-18T11:10:25;2.8;;;1.7;;
32451;SDS011;45528;52.102;5.242;2023-09-18T11:12:02;4.61;;;2.6;;
32451;SDS011;45528;52.102;5.242;2023-09-18T11:15:26;3.2;;;2.1;;
32451;SDS011;45528;52.102;5.242;2023-09-18T11:17:07;9.31;;;3.2;;
32451;SDS011;45528;52.102;5.242;2023-09-18T11:19:07;3.5;;;2.1;;
32451;SDS011;45528;52.102;5.242;2023-09-18T11:20:51;5.0;;;2.31;;
32451;SDS011;45528;52.102;5.242;2023-09-18T11:22:45;3.2;;;2.1;;
32451;SDS011;45528;52.102;5.242;2023-09-18T11:24:23;3.2;;;2.1;;
32451;SDS011;45528;52.102;5.242;2023-09-18T11:27:51;9.5;;;2.8;;
32451;SDS011;45528;52.102;5.242;2023-09-18T11:29:28;3.7;;;2.21;;
32451;SDS011;45528;52.102;5.242;2023-09-18T11:31:05;3.0;;;1.9;;
32451;SDS011;45528;52.102;5.242;2023-09-18T11:32:42;3.8;;;2.21;;
32451;SDS011;45528;52.102;5.242;2023-09-18T11:36:01;3.5;;;2.31;;
32451;SDS011;45528;52.102;5.242;2023-09-18T11:37:40;3.6;;;2.21;;
32451;SDS011;45528;52.102;5.242;2023-09-18T11:39:33;3.3;;;2.21;;
32451;SDS011;45528;52.102;5.242;2023-09-18T11:41:26;5.3;;;2.4;;
32451;SDS011;45528;52.102;5.242;2023-09-18T11:43:20;4.0;;;2.4;;
32451;SDS011;45528;52.102;5.242;2023-09-18T11:46:34;5.2;;;2.31;;
32451;SDS011;45528;52.102;5.242;2023-09-18T11:48:10;3.8;;;2.31;;
32451;SDS011;45528;52.102;5.242;2023-09-18T11:49:49;5.0;;;2.21;;
32451;SDS011;45528;52.102;5.242;2023-09-18T11:51:26;4.0;;;2.4;;
32451;SDS011;45528;52.102;5.242;2023-09-18T11:54:41;4.8;;;2.5;;
32451;SDS011;45528;52.102;5.242;2023-09-18T11:56:17;6.1;;;2.31;;
32451;SDS011;45528;52.102;5.242;2023-09-18T11:57:53;5.3;;;2.7;;
32451;SDS011;45528;52.102;5.242;2023-09-18T12:01:10;7.2;;;2.5;;
32451;SDS011;45528;52.102;5.242;2023-09-18T12:02:46;7.1;;;3.2;;
32451;SDS011;45528;52.102;5.242;2023-09-18T12:04:27;5.3;;;2.4;;
32451;SDS011;45528;52.102;5.242;2023-09-18T12:06:04;9.21;;;3.0;;
32451;SDS011;45528;52.102;5.242;2023-09-18T12:09:18;4.3;;;3.1;;
32451;SDS011;45528;52.102;5.242;2023-09-18T12:10:54;4.7;;;3.3;;
32451;SDS011;45528;52.102;5.242;2023-09-18T12:12:30;4.5;;;2.4;;
32451;SDS011;45528;52.102;5.242;2023-09-18T12:15:41;3.7;;;2.7;;
32451;SDS011;45528;52.102;5.242;2023-09-18T12:17:17;4.8;;;3.0;;
32451;SDS011;45528;52.102;5.242;2023-09-18T12:18:53;4.5;;;3.2;;
32451;SDS011;45528;52.102;5.242;2023-09-18T12:22:06;8.81;;;3.1;;
32451;SDS011;45528;52.102;5.242;2023-09-18T12:23:42;5.5;;;3.1;;
32451;SDS011;45528;52.102;5.242;2023-09-18T12:25:20;3.5;;;2.6;;
32451;SDS011;45528;52.102;5.242;2023-09-18T12:26:56;4.61;;;2.7;;
32451;SDS011;45528;52.102;5.242;2023-09-18T12:30:11;8.4;;;3.1;;
32451;SDS011;45528;52.102;5.242;2023-09-18T12:31:48;5.9;;;2.5;;
32451;SDS011;45528;52.102;5.242;2023-09-18T12:33:24;7.0;;;2.7;;
32451;SDS011;45528;52.102;5.242;2023-09-18T12:36:41;8.6;;;2.8;;
32451;SDS011;45528;52.102;5.242;2023-09-18T12:38:18;5.0;;;2.4;;
32451;SDS011;45528;52.102;5.242;2023-09-18T12:39:55;5.2;;;2.0;;
32451;SDS011;45528;52.102;5.242;2023-09-18T12:43:07;3.5;;;2.0;;
32451;SDS011;45528;52.102;5.242;2023-09-18T12:44:43;6.0;;;2.1;;
32451;SDS011;45528;52.102;5.242;2023-09-18T12:46:22;4.5;;;2.0;;
32451;SDS011;45528;52.102;5.242;2023-09-18T12:47:58;4.2;;;1.9;;
32451;SDS011;45528;52.102;5.242;2023-09-18T12:51:12;2.5;;;1.6;;
32451;SDS011;45528;52.102;5.242;2023-09-18T12:52:49;6.2;;;2.4;;
32451;SDS011;45528;52.102;5.242;2023-09-18T12:54:40;4.1;;;2.21;;
32451;SDS011;45528;52.102;5.242;2023-09-18T12:56:19;4.8;;;2.7;;